Time;durP1;ratioP1;P1;durP2;ratioP2;P2;SDS_P1;SDS_P2;PMS_P1;PMS_P2;Temp;Humidity;BMP_temperature;BMP_pressure;BME280_temperature;BME280_humidity;BME280_pressure;Samples;Min_cycle;Max_cycle;Signal;HPM_P1;HPM_P2
2022/10/03 00:00:16;;;;;;;;;;;16.30;99.90;;;;;;4933155;29;20357;-75
2022/10/03 00:03:01;;;;;;;;;;;16.40;99.90;;;;;;4934536;29;20043;-74
2022/10/03 00:05:27;;;;;;;;;;;16.60;99.90;;;;;;4934661;29;20426;-71
2022/10/03 00:08:16;;;;;;;;;;;16.80;99.90;;;;;;4934680;29;19974;-70
2022/10/03 00:11:18;;;;;;;;;;;16.80;99.90;;;;;;4933637;29;19915;-69
2022/10/03 00:13:55;;;;;;;;;;;16.70;99.90;;;;;;4864977;29;19912;-71
2022/10/03 00:16:22;;;;;;;;;;;16.70;99.90;;;;;;4908533;29;20272;-75
2022/10/03 00:18:54;;;;;;;;;;;16.70;99.90;;;;;;4915389;29;19986;-75
2022/10/03 00:21:35;;;;;;;;;;;16.80;99.90;;;;;;4918234;29;19911;-72
2022/10/03 00:24:10;;;;;;;;;;;17.00;99.90;;;;;;4919379;29;20009;-71
2022/10/03 00:26:57;;;;;;;;;;;17.10;99.90;;;;;;4919217;29;19938;-76
2022/10/03 00:29:26;;;;;;;;;;;17.20;99.90;;;;;;4918590;29;20294;-73
2022/10/03 00:32:05;;;;;;;;;;;17.40;99.90;;;;;;4919437;29;19918;-70
2022/10/03 00:34:31;;;;;;;;;;;17.60;99.90;;;;;;4919439;29;19919;-71
2022/10/03 00:36:58;;;;;;;;;;;17.70;99.90;;;;;;4918956;29;19915;-73
2022/10/03 00:39:44;;;;;;;;;;;17.70;99.90;;;;;;4918493;29;19915;-72
2022/10/03 00:42:30;;;;;;;;;;;17.70;99.90;;;;;;4918904;29;19912;-71
2022/10/03 00:45:20;;;;;;;;;;;17.80;99.90;;;;;;4919517;29;20375;-73
2022/10/03 00:48:05;;;;;;;;;;;17.60;99.90;;;;;;4936340;29;20013;-73
2022/10/03 00:50:57;;;;;;;;;;;17.40;99.90;;;;;;4937845;29;19922;-68
2022/10/03 00:53:31;;;;;;;;;;;17.20;99.90;;;;;;4929226;29;20005;-69
2022/10/03 00:56:06;;;;;;;;;;;17.10;99.90;;;;;;4937655;29;20290;-73
2022/10/03 00:58:42;;;;;;;;;;;17.00;99.90;;;;;;4936344;29;19922;-74
2022/10/03 01:01:27;;;;;;;;;;;16.90;99.90;;;;;;4937475;29;19930;-74
2022/10/03 01:03:56;;;;;;;;;;;16.90;99.90;;;;;;4937720;29;19926;-72
2022/10/03 01:06:26;;;;;;;;;;;16.80;99.90;;;;;;4937077;29;19911;-76
2022/10/03 01:08:55;;;;;;;;;;;16.80;99.90;;;;;;4935870;29;19942;-68
2022/10/03 01:11:29;;;;;;;;;;;16.80;99.90;;;;;;4937351;29;19914;-73
2022/10/03 01:14:04;;;;;;;;;;;17.00;99.90;;;;;;4937270;29;20190;-75
2022/10/03 01:16:36;;;;;;;;;;;17.40;99.90;;;;;;4937291;29;20370;-73
2022/10/03 01:19:27;;;;;;;;;;;18.00;99.90;;;;;;4936683;29;19910;-66
2022/10/03 01:22:00;;;;;;;;;;;19.00;99.30;;;;;;4937173;29;20497;-70
2022/10/03 01:24:45;;;;;;;;;;;19.30;98.50;;;;;;4936981;29;19922;-73
2022/10/03 01:27:17;;;;;;;;;;;19.10;98.70;;;;;;4936860;29;20021;-74
2022/10/03 01:32:44;;;;;;;;;;;18.80;97.80;;;;;;4935935;29;19926;-76
2022/10/03 01:35:26;;;;;;;;;;;18.70;99.00;;;;;;4937012;29;19918;-75
2022/10/03 01:38:04;;;;;;;;;;;18.40;98.60;;;;;;4935647;29;20014;-74
2022/10/03 01:40:47;;;;;;;;;;;18.30;98.90;;;;;;4936612;29;19974;-71
2022/10/03 01:43:37;;;;;;;;;;;18.20;99.90;;;;;;4936462;29;20017;-71
2022/10/03 01:46:03;;;;;;;;;;;18.00;99.80;;;;;;4936367;29;19911;-70
2022/10/03 01:48:44;;;;;;;;;;;17.90;99.00;;;;;;4936024;29;20290;-73
2022/10/03 01:51:15;;;;;;;;;;;17.80;99.60;;;;;;4935820;29;19926;-73
2022/10/03 01:53:57;;;;;;;;;;;17.90;99.90;;;;;;4936396;29;19958;-70
2022/10/03 01:56:27;;;;;;;;;;;18.00;99.20;;;;;;4936524;29;19915;-73
2022/10/03 01:59:13;;;;;;;;;;;18.00;98.70;;;;;;4936165;29;19934;-73
2022/10/03 02:01:52;;;;;;;;;;;17.90;99.10;;;;;;4925897;29;20394;-75
2022/10/03 02:04:37;;;;;;;;;;;17.90;99.50;;;;;;4935242;29;20392;-73
2022/10/03 02:07:04;;;;;;;;;;;17.90;99.80;;;;;;4936172;29;19942;-70
2022/10/03 02:09:38;;;;;;;;;;;17.80;99.70;;;;;;4936013;29;19911;-69
2022/10/03 02:12:16;;;;;;;;;;;17.80;99.70;;;;;;4936347;29;19915;-68
2022/10/03 02:14:46;;;;;;;;;;;17.90;99.70;;;;;;4936176;29;19971;-74
2022/10/03 02:17:18;;;;;;;;;;;18.00;99.80;;;;;;4935863;29;20011;-71
2022/10/03 02:20:03;;;;;;;;;;;18.00;99.20;;;;;;4934982;29;20430;-73
2022/10/03 02:22:35;;;;;;;;;;;17.90;99.40;;;;;;4935795;29;20263;-70
2022/10/03 02:25:22;;;;;;;;;;;17.80;99.90;;;;;;4935739;29;19911;-66
2022/10/03 02:28:07;;;;;;;;;;;17.90;99.90;;;;;;4935427;29;19927;-74
2022/10/03 02:30:53;;;;;;;;;;;18.00;99.90;;;;;;4935605;29;19971;-74
2022/10/03 02:33:22;;;;;;;;;;;18.00;99.90;;;;;;4935033;29;19914;-73
2022/10/03 02:36:08;;;;;;;;;;;18.00;99.40;;;;;;4935483;29;19914;-75
2022/10/03 02:38:41;;;;;;;;;;;17.90;99.90;;;;;;4936166;29;19915;-76
2022/10/03 02:41:26;;;;;;;;;;;17.90;98.40;;;;;;4936604;29;20407;-75
2022/10/03 02:43:55;;;;;;;;;;;17.70;99.80;;;;;;4935617;29;19933;-75
2022/10/03 02:46:58;;;;;;;;;;;17.50;99.90;;;;;;4935436;29;20307;-75
2022/10/03 02:49:37;;;;;;;;;;;17.60;99.90;;;;;;4933610;29;19930;-76
2022/10/03 02:52:04;;;;;;;;;;;17.60;99.90;;;;;;4934999;29;19923;-72
2022/10/03 02:54:37;;;;;;;;;;;17.60;99.90;;;;;;4935254;29;19967;-76
2022/10/03 02:57:16;;;;;;;;;;;17.70;99.90;;;;;;4935309;29;19911;-70
2022/10/03 02:59:43;;;;;;;;;;;17.80;99.90;;;;;;4934945;29;19914;-78
2022/10/03 03:02:10;;;;;;;;;;;17.90;99.90;;;;;;4935157;29;20282;-77
2022/10/03 03:04:40;;;;;;;;;;;17.80;99.90;;;;;;4915772;29;19984;-76
2022/10/03 03:07:25;;;;;;;;;;;17.70;99.90;;;;;;4915986;29;19919;-76
2022/10/03 03:10:01;;;;;;;;;;;17.70;99.90;;;;;;4916103;29;19915;-76
2022/10/03 03:12:30;;;;;;;;;;;17.80;99.90;;;;;;4916187;29;19974;-75
2022/10/03 03:15:07;;;;;;;;;;;17.80;99.90;;;;;;4916089;29;19937;-74
2022/10/03 03:17:33;;;;;;;;;;;17.80;99.90;;;;;;4916072;29;19954;-76
2022/10/03 03:20:18;;;;;;;;;;;17.80;99.90;;;;;;4915797;29;20467;-74
2022/10/03 03:22:48;;;;;;;;;;;18.00;99.90;;;;;;4916118;29;19933;-73
2022/10/03 03:25:20;;;;;;;;;;;17.90;99.90;;;;;;4915759;29;19911;-76
2022/10/03 03:28:02;;;;;;;;;;;17.90;99.90;;;;;;4915812;29;19927;-74
2022/10/03 03:30:43;;;;;;;;;;;17.90;99.90;;;;;;4916254;29;19912;-77
2022/10/03 03:33:24;;;;;;;;;;;17.80;99.90;;;;;;4915835;29;19922;-69
2022/10/03 03:36:02;;;;;;;;;;;17.70;99.90;;;;;;4915852;29;20390;-73
2022/10/03 03:38:32;;;;;;;;;;;17.70;99.90;;;;;;4915502;29;19955;-72
2022/10/03 03:41:05;;;;;;;;;;;17.70;99.90;;;;;;4916097;29;19915;-72
2022/10/03 03:43:38;;;;;;;;;;;17.60;99.90;;;;;;4915790;29;19922;-73
2022/10/03 03:46:25;;;;;;;;;;;17.90;99.90;;;;;;4925253;29;20301;-68
2022/10/03 03:49:04;;;;;;;;;;;17.90;99.90;;;;;;4933730;29;19953;-69
2022/10/03 03:51:41;;;;;;;;;;;17.80;99.90;;;;;;4934880;29;20461;-71
2022/10/03 03:54:10;;;;;;;;;;;17.70;99.90;;;;;;4934857;29;20003;-71
2022/10/03 03:56:43;;;;;;;;;;;17.60;99.90;;;;;;4937385;29;19919;-72
2022/10/03 03:59:25;;;;;;;;;;;17.70;99.90;;;;;;4938041;29;19915;-75
2022/10/03 04:02:05;;;;;;;;;;;17.80;99.90;;;;;;4938064;29;19969;-69
2022/10/03 04:04:56;;;;;;;;;;;17.80;99.90;;;;;;4938421;29;19914;-72
2022/10/03 04:07:29;;;;;;;;;;;17.80;99.90;;;;;;4938485;29;19962;-71
2022/10/03 04:10:05;;;;;;;;;;;17.70;99.90;;;;;;4938159;29;19921;-68
2022/10/03 04:12:35;;;;;;;;;;;17.80;99.90;;;;;;4938391;29;19914;-67
2022/10/03 04:15:08;;;;;;;;;;;17.70;99.90;;;;;;4938279;29;19978;-67
2022/10/03 04:20:49;;;;;;;;;;;17.60;99.90;;;;;;4938562;29;20035;-67
2022/10/03 04:23:23;;;;;;;;;;;17.70;99.90;;;;;;4927816;29;19915;-69
2022/10/03 04:26:10;;;;;;;;;;;17.80;99.90;;;;;;4938210;29;19911;-68
2022/10/03 04:28:55;;;;;;;;;;;17.80;99.90;;;;;;4937704;29;20033;-68
2022/10/03 04:31:22;;;;;;;;;;;17.80;99.90;;;;;;4937662;29;19918;-69
2022/10/03 04:33:58;;;;;;;;;;;17.70;99.90;;;;;;4937891;29;19923;-68
2022/10/03 04:36:46;;;;;;;;;;;17.70;99.90;;;;;;4938028;29;19922;-68
2022/10/03 04:39:20;;;;;;;;;;;17.70;99.90;;;;;;4937322;29;19911;-69
2022/10/03 04:41:48;;;;;;;;;;;17.70;99.90;;;;;;4937748;29;19922;-68
2022/10/03 04:44:33;;;;;;;;;;;17.60;99.90;;;;;;4937743;29;20013;-69
2022/10/03 04:47:11;;;;;;;;;;;17.60;99.90;;;;;;4937060;29;19923;-69
2022/10/03 04:50:10;;;;;;;;;;;17.70;99.90;;;;;;4937414;29;19930;-68
2022/10/03 04:52:46;;;;;;;;;;;17.80;99.90;;;;;;4905665;29;19911;-69
2022/10/03 04:55:28;;;;;;;;;;;17.80;99.90;;;;;;4937177;29;19911;-68
2022/10/03 04:58:27;;;;;;;;;;;17.90;99.90;;;;;;4936143;29;19918;-69
2022/10/03 05:00:59;;;;;;;;;;;17.90;99.90;;;;;;4904960;29;20356;-74
2022/10/03 05:03:43;;;;;;;;;;;17.90;99.90;;;;;;4937158;29;19997;-76
2022/10/03 05:06:27;;;;;;;;;;;17.80;99.90;;;;;;4937141;28;19915;-74
2022/10/03 05:09:03;;;;;;;;;;;17.80;99.90;;;;;;4936888;29;20429;-71
2022/10/03 05:11:35;;;;;;;;;;;17.60;99.90;;;;;;4927641;29;19926;-73
2022/10/03 05:14:10;;;;;;;;;;;17.50;99.90;;;;;;4917240;29;19990;-71
2022/10/03 05:16:48;;;;;;;;;;;17.60;99.90;;;;;;4918085;29;19938;-71
2022/10/03 05:19:27;;;;;;;;;;;17.60;99.90;;;;;;4917677;29;19990;-68
2022/10/03 05:22:12;;;;;;;;;;;17.60;99.90;;;;;;4918236;29;19911;-68
2022/10/03 05:24:46;;;;;;;;;;;17.60;99.90;;;;;;4918052;29;19916;-68
2022/10/03 05:27:34;;;;;;;;;;;17.50;99.90;;;;;;4917328;29;20371;-74
2022/10/03 05:30:10;;;;;;;;;;;17.50;99.90;;;;;;4917713;29;20363;-72
2022/10/03 05:32:45;;;;;;;;;;;17.50;99.90;;;;;;4917488;29;20355;-68
2022/10/03 05:35:31;;;;;;;;;;;17.50;99.90;;;;;;4916332;29;20010;-75
2022/10/03 05:38:16;;;;;;;;;;;17.30;99.90;;;;;;4917273;29;19915;-73
2022/10/03 05:40:47;;;;;;;;;;;17.30;99.90;;;;;;4923512;29;20285;-74
2022/10/03 05:43:26;;;;;;;;;;;17.20;99.90;;;;;;4935244;29;19918;-73
2022/10/03 05:46:13;;;;;;;;;;;17.30;99.90;;;;;;4936369;29;20001;-72
2022/10/03 05:48:49;;;;;;;;;;;17.30;99.90;;;;;;4935593;29;19923;-69
2022/10/03 05:51:21;;;;;;;;;;;17.30;99.90;;;;;;4934707;29;20061;-77
2022/10/03 05:54:00;;;;;;;;;;;17.40;99.90;;;;;;4933095;29;20014;-70
2022/10/03 05:56:40;;;;;;;;;;;17.30;99.90;;;;;;4933978;29;19911;-70
2022/10/03 05:59:22;;;;;;;;;;;17.20;99.90;;;;;;4933860;29;19915;-76
2022/10/03 06:02:09;;;;;;;;;;;17.00;99.90;;;;;;4934122;29;19978;-76
2022/10/03 06:04:41;;;;;;;;;;;17.00;99.90;;;;;;4932988;29;19922;-71
2022/10/03 06:07:21;;;;;;;;;;;17.00;99.90;;;;;;4934233;29;19927;-71
2022/10/03 06:09:51;;;;;;;;;;;16.90;99.90;;;;;;4934077;29;19930;-68
2022/10/03 06:12:20;;;;;;;;;;;16.90;99.90;;;;;;4934766;29;19915;-75
2022/10/03 06:15:03;;;;;;;;;;;16.80;99.90;;;;;;4933199;29;19923;-76
2022/10/03 06:17:35;;;;;;;;;;;16.80;99.90;;;;;;4933250;29;19989;-74
2022/10/03 06:20:05;;;;;;;;;;;16.90;99.90;;;;;;4934325;29;19922;-72
2022/10/03 06:22:35;;;;;;;;;;;16.90;99.90;;;;;;4934291;29;19923;-73
2022/10/03 06:25:13;;;;;;;;;;;16.90;99.90;;;;;;4933051;29;20042;-72
2022/10/03 06:27:59;;;;;;;;;;;16.80;99.90;;;;;;4934018;29;20272;-67
2022/10/03 06:30:44;;;;;;;;;;;16.80;99.90;;;;;;4932746;29;19918;-75
2022/10/03 06:33:22;;;;;;;;;;;16.80;99.90;;;;;;4933843;29;19923;-72
2022/10/03 06:35:53;;;;;;;;;;;16.90;99.90;;;;;;4933878;29;19921;-73
2022/10/03 06:38:38;;;;;;;;;;;16.90;99.90;;;;;;4933338;29;19918;-72
2022/10/03 06:41:08;;;;;;;;;;;17.00;99.90;;;;;;4932487;29;19974;-71
2022/10/03 06:43:37;;;;;;;;;;;17.00;99.90;;;;;;4933452;29;19958;-73
2022/10/03 06:46:32;;;;;;;;;;;16.90;99.90;;;;;;4933414;29;19911;-74
2022/10/03 06:49:17;;;;;;;;;;;16.90;99.90;;;;;;4933254;29;20634;-71
2022/10/03 06:51:43;;;;;;;;;;;16.80;99.90;;;;;;4932666;29;19915;-67
2022/10/03 06:54:39;;;;;;;;;;;16.90;99.90;;;;;;4933514;29;20290;-70
2022/10/03 06:57:09;;;;;;;;;;;16.80;99.90;;;;;;4927606;29;19911;-71
2022/10/03 06:59:53;;;;;;;;;;;16.80;99.90;;;;;;4933478;29;19947;-72
2022/10/03 07:02:35;;;;;;;;;;;16.70;99.90;;;;;;4932511;29;19930;-68
2022/10/03 07:05:05;;;;;;;;;;;16.70;99.90;;;;;;4933486;29;19958;-66
2022/10/03 07:07:31;;;;;;;;;;;16.60;99.90;;;;;;4933265;29;19918;-71
2022/10/03 07:09:59;;;;;;;;;;;16.50;99.90;;;;;;4933230;29;19922;-72
2022/10/03 07:12:46;;;;;;;;;;;16.50;99.90;;;;;;4932601;29;19915;-73
2022/10/03 07:15:21;;;;;;;;;;;16.40;99.90;;;;;;4933155;29;20298;-72
2022/10/03 07:18:05;;;;;;;;;;;16.40;99.90;;;;;;4933223;29;20033;-73
2022/10/03 07:20:32;;;;;;;;;;;16.40;99.90;;;;;;4933754;29;19938;-73
2022/10/03 07:22:59;;;;;;;;;;;16.30;99.90;;;;;;4947207;29;19915;-65
2022/10/03 07:25:48;;;;;;;;;;;16.30;99.90;;;;;;4941231;29;19934;-66
2022/10/03 07:28:27;;;;;;;;;;;16.30;99.90;;;;;;4897155;29;19922;-69
2022/10/03 07:31:00;;;;;;;;;;;16.20;99.90;;;;;;4932781;29;19914;-71
2022/10/03 07:33:44;;;;;;;;;;;16.20;99.90;;;;;;4932214;29;19915;-76
2022/10/03 07:39:33;;;;;;;;;;;16.20;99.90;;;;;;4932459;29;19962;-74
2022/10/03 07:42:18;;;;;;;;;;;16.20;99.90;;;;;;4932955;29;19919;-71
2022/10/03 07:45:00;;;;;;;;;;;16.20;99.90;;;;;;4932864;29;19918;-71
2022/10/03 07:47:41;;;;;;;;;;;16.20;99.90;;;;;;4913133;29;19923;-74
2022/10/03 07:50:16;;;;;;;;;;;16.20;99.90;;;;;;4913670;29;19912;-71
2022/10/03 07:52:53;;;;;;;;;;;16.20;99.90;;;;;;4913945;29;19942;-71
2022/10/03 07:55:38;;;;;;;;;;;16.10;99.90;;;;;;4932149;29;20005;-70
2022/10/03 07:58:25;;;;;;;;;;;16.10;99.90;;;;;;4932570;29;19922;-73
2022/10/03 08:01:04;;;;;;;;;;;16.00;99.90;;;;;;4932919;29;20006;-73
2022/10/03 08:03:34;;;;;;;;;;;16.00;99.90;;;;;;4931614;29;19958;-73
2022/10/03 08:06:06;;;;;;;;;;;16.00;99.90;;;;;;4913738;29;19915;-70
2022/10/03 08:08:49;;;;;;;;;;;16.00;99.90;;;;;;4914299;29;20426;-73
2022/10/03 08:11:31;;;;;;;;;;;15.90;99.90;;;;;;4915657;29;19915;-75
2022/10/03 08:14:17;;;;;;;;;;;15.90;99.90;;;;;;4915473;29;19911;-70
2022/10/03 08:17:06;;;;;;;;;;;15.80;99.90;;;;;;4915119;29;20431;-72
2022/10/03 08:19:41;;;;;;;;;;;15.80;99.90;;;;;;4915207;29;20428;-74
2022/10/03 08:22:12;;;;;;;;;;;15.80;99.90;;;;;;4915420;29;20379;-75
2022/10/03 08:24:55;;;;;;;;;;;15.80;99.90;;;;;;4915317;29;19955;-72
2022/10/03 08:27:27;;;;;;;;;;;15.70;99.90;;;;;;4914841;29;19991;-75
2022/10/03 08:29:57;;;;;;;;;;;15.70;99.90;;;;;;4907047;29;19915;-72
2022/10/03 08:32:43;;;;;;;;;;;15.70;99.90;;;;;;4907767;29;19915;-70
2022/10/03 08:35:28;;;;;;;;;;;15.70;99.90;;;;;;4896262;29;19915;-73
2022/10/03 08:38:07;;;;;;;;;;;15.70;99.90;;;;;;4907392;29;19922;-72
2022/10/03 08:40:39;;;;;;;;;;;15.70;99.90;;;;;;4907584;29;20618;-70
2022/10/03 08:43:24;;;;;;;;;;;15.60;99.90;;;;;;4910544;29;19921;-72
2022/10/03 08:45:54;;;;;;;;;;;15.60;99.90;;;;;;4918282;29;19998;-73
2022/10/03 08:48:58;;;;;;;;;;;15.60;99.90;;;;;;4929686;29;20660;-72
2022/10/03 08:51:50;;;;;;;;;;;15.60;99.90;;;;;;4888416;29;20010;-69
2022/10/03 08:54:23;;;;;;;;;;;15.60;99.90;;;;;;4883692;29;19920;-74
2022/10/03 08:56:56;;;;;;;;;;;15.60;99.90;;;;;;4898454;29;19922;-69
2022/10/03 08:59:40;;;;;;;;;;;15.50;99.90;;;;;;4915356;29;19911;-71
2022/10/03 09:02:25;;;;;;;;;;;15.50;99.90;;;;;;4943900;29;19934;-72
2022/10/03 09:05:07;;;;;;;;;;;15.50;99.90;;;;;;4933388;29;19922;-72
2022/10/03 09:07:43;;;;;;;;;;;15.50;99.90;;;;;;4930053;29;20481;-72
2022/10/03 09:10:22;;;;;;;;;;;15.50;99.90;;;;;;4930088;29;19938;-75
2022/10/03 09:13:08;;;;;;;;;;;15.50;99.90;;;;;;4930612;29;19974;-74
2022/10/03 09:15:35;;;;;;;;;;;15.50;99.90;;;;;;4934126;29;19915;-74
2022/10/03 09:18:08;;;;;;;;;;;15.50;99.90;;;;;;4917439;29;20018;-76
2022/10/03 09:20:56;;;;;;;;;;;15.50;99.90;;;;;;4917426;29;19915;-72
2022/10/03 09:23:29;;;;;;;;;;;15.50;99.90;;;;;;4919241;29;20487;-72
2022/10/03 09:26:13;;;;;;;;;;;15.40;99.90;;;;;;4915496;29;19971;-70
2022/10/03 09:28:46;;;;;;;;;;;15.40;99.90;;;;;;4915305;29;19923;-72
2022/10/03 09:31:24;;;;;;;;;;;15.40;99.90;;;;;;4909978;29;20015;-74
2022/10/03 09:34:00;;;;;;;;;;;15.40;99.90;;;;;;4910964;29;20670;-72
2022/10/03 09:36:36;;;;;;;;;;;15.40;99.90;;;;;;4910507;29;20013;-74
2022/10/03 09:39:23;;;;;;;;;;;15.30;99.90;;;;;;4909696;29;19915;-69
2022/10/03 09:42:16;;;;;;;;;;;15.40;99.90;;;;;;4910124;29;19922;-75
2022/10/03 09:44:51;;;;;;;;;;;15.30;99.90;;;;;;4894043;29;20001;-69
2022/10/03 09:47:36;;;;;;;;;;;15.30;99.90;;;;;;4927282;29;19938;-66
2022/10/03 09:50:35;;;;;;;;;;;15.30;99.90;;;;;;4928801;29;19962;-73
2022/10/03 09:53:20;;;;;;;;;;;15.30;99.90;;;;;;4927824;29;19918;-72
2022/10/03 09:56:00;;;;;;;;;;;15.30;99.90;;;;;;4928432;29;20441;-74
2022/10/03 09:58:46;;;;;;;;;;;15.20;99.90;;;;;;4927374;29;19919;-75
2022/10/03 10:01:39;;;;;;;;;;;15.20;99.90;;;;;;4897022;29;19930;-69
2022/10/03 10:04:12;;;;;;;;;;;15.20;99.90;;;;;;4904261;29;19915;-73
2022/10/03 10:06:41;;;;;;;;;;;15.20;99.90;;;;;;4928560;29;19915;-72
2022/10/03 10:09:26;;;;;;;;;;;15.20;99.90;;;;;;4927967;29;19998;-69
2022/10/03 10:11:59;;;;;;;;;;;15.10;99.90;;;;;;4927712;29;20009;-72
2022/10/03 10:14:28;;;;;;;;;;;15.10;99.90;;;;;;4926577;29;20369;-73
2022/10/03 10:17:14;;;;;;;;;;;15.10;99.90;;;;;;4928071;29;19998;-71
2022/10/03 10:20:07;;;;;;;;;;;15.00;99.90;;;;;;4927885;29;20305;-73
2022/10/03 10:23:01;;;;;;;;;;;15.00;99.90;;;;;;4905608;29;19915;-70
2022/10/03 10:25:46;;;;;;;;;;;15.00;99.90;;;;;;4925794;29;19925;-71
2022/10/03 10:28:31;;;;;;;;;;;15.00;99.90;;;;;;4926319;29;19997;-69
2022/10/03 10:31:13;;;;;;;;;;;14.90;99.90;;;;;;4927590;29;20571;-67
2022/10/03 10:34:15;;;;;;;;;;;14.90;99.90;;;;;;4928044;29;20013;-75
2022/10/03 10:36:44;;;;;;;;;;;14.90;99.90;;;;;;4876300;29;19936;-68
2022/10/03 10:39:29;;;;;;;;;;;14.90;99.90;;;;;;4934389;29;19923;-74
2022/10/03 10:42:08;;;;;;;;;;;14.90;99.90;;;;;;4925044;29;20041;-70
2022/10/03 10:44:40;;;;;;;;;;;14.90;99.90;;;;;;4907842;29;19975;-67
2022/10/03 10:47:23;;;;;;;;;;;14.90;99.90;;;;;;4925599;29;19918;-70
2022/10/03 10:50:01;;;;;;;;;;;14.90;99.90;;;;;;4927748;29;19926;-68
2022/10/03 10:52:39;;;;;;;;;;;14.80;99.90;;;;;;4927515;29;19978;-69
2022/10/03 10:55:29;;;;;;;;;;;14.80;99.90;;;;;;4927586;29;20018;-70
2022/10/03 10:57:56;;;;;;;;;;;14.70;99.90;;;;;;4927071;29;19994;-67
2022/10/03 11:00:53;;;;;;;;;;;14.80;99.90;;;;;;4926961;29;20018;-70
2022/10/03 11:03:20;;;;;;;;;;;14.70;99.90;;;;;;4927422;29;20342;-66
2022/10/03 11:06:05;;;;;;;;;;;14.80;99.90;;;;;;4925922;29;20690;-72
2022/10/03 11:08:50;;;;;;;;;;;14.80;99.90;;;;;;4927287;29;20017;-68
2022/10/03 11:11:26;;;;;;;;;;;14.80;99.90;;;;;;4927239;29;19915;-69
2022/10/03 11:14:02;;;;;;;;;;;14.80;99.90;;;;;;4927251;29;19915;-68
2022/10/03 11:16:34;;;;;;;;;;;14.70;99.90;;;;;;4927413;29;19918;-70
2022/10/03 11:19:18;;;;;;;;;;;14.70;99.90;;;;;;4926850;29;19919;-71
2022/10/03 11:22:10;;;;;;;;;;;14.70;99.90;;;;;;4927631;29;20370;-69
2022/10/03 11:24:40;;;;;;;;;;;14.70;99.90;;;;;;4927210;29;19915;-69
2022/10/03 11:27:16;;;;;;;;;;;14.80;99.90;;;;;;4926771;29;20633;-70
2022/10/03 11:29:45;;;;;;;;;;;14.80;99.90;;;;;;4926537;29;19954;-72
2022/10/03 11:32:12;;;;;;;;;;;14.80;99.90;;;;;;4926945;29;20002;-70
2022/10/03 11:34:57;;;;;;;;;;;14.70;99.90;;;;;;4927253;29;19923;-69
2022/10/03 11:37:36;;;;;;;;;;;14.70;99.90;;;;;;4926765;29;19961;-73
2022/10/03 11:40:09;;;;;;;;;;;14.70;99.90;;;;;;4927279;29;19986;-72
2022/10/03 11:42:39;;;;;;;;;;;14.70;99.90;;;;;;4927392;29;19915;-69
2022/10/03 11:45:15;;;;;;;;;;;14.70;99.90;;;;;;4926432;29;19919;-74
2022/10/03 11:47:54;;;;;;;;;;;14.80;99.90;;;;;;4926628;29;20362;-71
2022/10/03 11:50:23;;;;;;;;;;;14.70;99.90;;;;;;4925405;29;19923;-69
2022/10/03 11:53:09;;;;;;;;;;;14.70;99.90;;;;;;4926325;29;19915;-72
2022/10/03 11:55:42;;;;;;;;;;;14.70;99.90;;;;;;4926768;29;19926;-72
2022/10/03 11:58:30;;;;;;;;;;;14.70;99.90;;;;;;4926362;29;19915;-73
2022/10/03 12:01:23;;;;;;;;;;;14.60;99.90;;;;;;4925363;29;19982;-71
2022/10/03 12:04:13;;;;;;;;;;;14.60;99.90;;;;;;4903980;29;19954;-74
2022/10/03 12:09:54;;;;;;;;;;;14.50;99.90;;;;;;4926664;29;19950;-71
2022/10/03 12:12:31;;;;;;;;;;;14.60;99.90;;;;;;4928454;29;20243;-70
2022/10/03 12:18:08;;;;;;;;;;;14.60;99.90;;;;;;4941552;29;20005;-68
2022/10/03 12:20:41;;;;;;;;;;;14.60;99.90;;;;;;4930703;29;19979;-66
2022/10/03 12:23:27;;;;;;;;;;;14.50;99.90;;;;;;4938226;29;20386;-67
2022/10/03 12:25:54;;;;;;;;;;;14.50;99.90;;;;;;4938408;29;19911;-67
2022/10/03 12:28:27;;;;;;;;;;;14.50;99.90;;;;;;4937115;29;19967;-66
2022/10/03 12:31:09;;;;;;;;;;;14.50;99.90;;;;;;4937799;29;19921;-66
2022/10/03 12:33:54;;;;;;;;;;;14.50;99.90;;;;;;4938108;29;20290;-66
2022/10/03 12:36:27;;;;;;;;;;;14.50;99.90;;;;;;4938208;29;19973;-66
2022/10/03 12:39:18;;;;;;;;;;;14.50;99.90;;;;;;4937515;29;19922;-65
2022/10/03 12:42:11;;;;;;;;;;;14.50;99.90;;;;;;4929986;29;20070;-70
2022/10/03 12:44:44;;;;;;;;;;;14.50;99.90;;;;;;4915065;29;20462;-72
2022/10/03 12:47:29;;;;;;;;;;;14.50;99.90;;;;;;4937249;29;19919;-67
2022/10/03 12:50:14;;;;;;;;;;;14.50;99.90;;;;;;4937839;29;20010;-66
2022/10/03 12:52:50;;;;;;;;;;;14.40;99.90;;;;;;4937729;29;19919;-68
2022/10/03 12:55:16;;;;;;;;;;;14.40;99.90;;;;;;4936364;29;19954;-72
2022/10/03 12:57:43;;;;;;;;;;;14.40;99.90;;;;;;4917819;29;19959;-67
2022/10/03 13:00:16;;;;;;;;;;;14.40;99.90;;;;;;4918485;29;20355;-66
2022/10/03 13:02:46;;;;;;;;;;;14.40;99.90;;;;;;4918478;29;19928;-68
2022/10/03 13:05:17;;;;;;;;;;;14.30;99.90;;;;;;4918367;29;19919;-66
2022/10/03 13:07:51;;;;;;;;;;;14.30;99.90;;;;;;4918213;29;19922;-66
2022/10/03 13:10:30;;;;;;;;;;;14.30;99.90;;;;;;4918635;29;19915;-69
2022/10/03 13:13:12;;;;;;;;;;;14.20;99.90;;;;;;4918510;29;19911;-68
2022/10/03 13:15:47;;;;;;;;;;;14.30;99.90;;;;;;4918316;29;19929;-66
2022/10/03 13:18:20;;;;;;;;;;;14.30;99.90;;;;;;4918000;29;19921;-66
2022/10/03 13:20:56;;;;;;;;;;;14.20;99.90;;;;;;4918527;29;20332;-67
2022/10/03 13:23:27;;;;;;;;;;;14.20;99.90;;;;;;4918292;29;20021;-66
2022/10/03 13:25:54;;;;;;;;;;;14.20;99.90;;;;;;4927428;29;20386;-66
2022/10/03 13:28:35;;;;;;;;;;;14.10;99.90;;;;;;4934694;29;20408;-69
2022/10/03 13:31:16;;;;;;;;;;;14.10;99.90;;;;;;4936985;29;19922;-67
2022/10/03 13:33:49;;;;;;;;;;;14.10;99.90;;;;;;4936533;29;19922;-73
2022/10/03 13:36:34;;;;;;;;;;;14.10;99.90;;;;;;4937107;29;19914;-69
2022/10/03 13:39:20;;;;;;;;;;;14.10;99.90;;;;;;4936761;29;19911;-71
2022/10/03 13:41:47;;;;;;;;;;;14.10;99.90;;;;;;4935779;29;19919;-72
2022/10/03 13:44:13;;;;;;;;;;;14.10;99.90;;;;;;4936804;29;19915;-71
2022/10/03 13:46:52;;;;;;;;;;;14.10;99.90;;;;;;4936487;29;19943;-73
2022/10/03 13:49:39;;;;;;;;;;;14.20;99.90;;;;;;4936668;29;19922;-71
2022/10/03 13:52:23;;;;;;;;;;;14.10;99.90;;;;;;4937855;29;19974;-69
2022/10/03 13:55:00;;;;;;;;;;;14.10;99.90;;;;;;4946964;29;19911;-72
2022/10/03 13:57:41;;;;;;;;;;;14.00;99.90;;;;;;4936489;29;20054;-68
2022/10/03 14:00:11;;;;;;;;;;;13.90;99.90;;;;;;4936723;29;19925;-67
2022/10/03 14:02:40;;;;;;;;;;;14.00;99.90;;;;;;4936491;29;19929;-65
2022/10/03 14:05:18;;;;;;;;;;;13.90;99.90;;;;;;4936280;29;20130;-66
2022/10/03 14:07:54;;;;;;;;;;;13.90;99.90;;;;;;4936133;29;20027;-66
2022/10/03 14:10:40;;;;;;;;;;;14.00;99.90;;;;;;4935086;29;19915;-66
2022/10/03 14:13:15;;;;;;;;;;;14.10;99.90;;;;;;4935895;29;19911;-66
2022/10/03 14:15:51;;;;;;;;;;;14.00;99.90;;;;;;4936333;29;19911;-66
2022/10/03 14:18:24;;;;;;;;;;;14.10;99.90;;;;;;4935953;29;19961;-67
2022/10/03 14:21:11;;;;;;;;;;;14.00;99.90;;;;;;4936398;29;19938;-68
2022/10/03 14:23:41;;;;;;;;;;;14.00;99.90;;;;;;4935206;29;19938;-68
2022/10/03 14:26:11;;;;;;;;;;;13.90;99.90;;;;;;4935285;29;19914;-67
2022/10/03 14:28:57;;;;;;;;;;;13.90;99.90;;;;;;4915172;29;20034;-67
2022/10/03 14:31:50;;;;;;;;;;;13.80;99.90;;;;;;4916359;29;20298;-69
2022/10/03 14:34:39;;;;;;;;;;;13.80;99.90;;;;;;4915100;29;19911;-67
2022/10/03 14:37:15;;;;;;;;;;;13.80;99.90;;;;;;4916386;29;19915;-68
2022/10/03 14:40:00;;;;;;;;;;;13.80;99.90;;;;;;4926739;29;20087;-68
2022/10/03 14:42:46;;;;;;;;;;;13.80;99.90;;;;;;4935807;29;19958;-67
2022/10/03 14:45:17;;;;;;;;;;;13.80;99.90;;;;;;4935413;29;19911;-67
2022/10/03 14:47:48;;;;;;;;;;;13.90;99.90;;;;;;4935336;29;19926;-70
2022/10/03 14:50:23;;;;;;;;;;;13.80;99.90;;;;;;4935621;29;19918;-68
2022/10/03 14:52:54;;;;;;;;;;;13.70;99.90;;;;;;4935487;29;19910;-66
2022/10/03 14:55:24;;;;;;;;;;;13.70;99.90;;;;;;4933516;29;20020;-65
2022/10/03 14:57:52;;;;;;;;;;;13.60;99.90;;;;;;4934883;29;19919;-66
2022/10/03 15:00:27;;;;;;;;;;;13.60;99.90;;;;;;4935398;29;19919;-70
2022/10/03 15:02:53;;;;;;;;;;;13.60;99.90;;;;;;4935482;29;19941;-66
2022/10/03 15:05:23;;;;;;;;;;;13.50;99.90;;;;;;4935230;29;19911;-66
2022/10/03 15:07:50;;;;;;;;;;;13.50;99.90;;;;;;4934401;29;20374;-66
2022/10/03 15:10:23;;;;;;;;;;;13.40;99.90;;;;;;4937918;29;20441;-66
2022/10/03 15:12:52;;;;;;;;;;;13.40;99.90;;;;;;4935203;29;19919;-66
2022/10/03 15:15:32;;;;;;;;;;;13.40;99.90;;;;;;4935062;29;19918;-68
2022/10/03 15:18:01;;;;;;;;;;;13.40;99.90;;;;;;4934908;29;19911;-67
2022/10/03 15:20:33;;;;;;;;;;;13.20;99.90;;;;;;4935291;29;20416;-70
2022/10/03 15:23:02;;;;;;;;;;;13.20;99.90;;;;;;4935010;29;20367;-66
2022/10/03 15:25:32;;;;;;;;;;;13.20;99.90;;;;;;4935631;29;19922;-68
2022/10/03 15:28:03;;;;;;;;;;;13.10;99.90;;;;;;4934908;29;19919;-67
2022/10/03 15:30:30;;;;;;;;;;;13.10;99.90;;;;;;4939434;29;19915;-65
2022/10/03 15:33:12;;;;;;;;;;;13.10;99.90;;;;;;4945549;29;19911;-73